sensor_id;sensor_type;location;lat;lon;timestamp;temperature;humidity
68450;SHT30;67758;39.572;2.652;2023-06-10T00:02:26;21.63;88.11
68450;SHT30;67758;39.572;2.652;2023-06-10T00:04:52;21.62;87.92
68450;SHT30;67758;39.572;2.652;2023-06-10T00:07:18;21.56;87.90
68450;SHT30;67758;39.572;2.652;2023-06-10T00:09:43;21.52;88.03
68450;SHT30;67758;39.572;2.652;2023-06-10T00:12:09;21.46;88.10
68450;SHT30;67758;39.572;2.652;2023-06-10T00:14:37;21.42;88.18
68450;SHT30;67758;39.572;2.652;2023-06-10T00:17:03;21.41;88.25
68450;SHT30;67758;39.572;2.652;2023-06-10T00:19:29;21.42;88.29
68450;SHT30;67758;39.572;2.652;2023-06-10T00:21:58;21.41;88.46
68450;SHT30;67758;39.572;2.652;2023-06-10T00:24:25;21.38;88.51
68450;SHT30;67758;39.572;2.652;2023-06-10T00:26:51;21.39;88.52
68450;SHT30;67758;39.572;2.652;2023-06-10T00:29:17;21.44;88.27
68450;SHT30;67758;39.572;2.652;2023-06-10T00:31:45;21.44;88.21
68450;SHT30;67758;39.572;2.652;2023-06-10T00:34:12;21.42;88.15
68450;SHT30;67758;39.572;2.652;2023-06-10T00:36:37;21.38;88.30
68450;SHT30;67758;39.572;2.652;2023-06-10T00:39:03;21.32;88.01
68450;SHT30;67758;39.572;2.652;2023-06-10T00:41:30;21.18;87.95
68450;SHT30;67758;39.572;2.652;2023-06-10T00:43:56;21.12;88.12
68450;SHT30;67758;39.572;2.652;2023-06-10T00:46:23;21.14;88.10
68450;SHT30;67758;39.572;2.652;2023-06-10T00:48:49;21.14;87.95
68450;SHT30;67758;39.572;2.652;2023-06-10T00:51:16;21.07;87.85
68450;SHT30;67758;39.572;2.652;2023-06-10T00:53:43;21.01;87.96
68450;SHT30;67758;39.572;2.652;2023-06-10T00:56:09;21.00;88.07
68450;SHT30;67758;39.572;2.652;2023-06-10T00:58:35;20.97;88.24
68450;SHT30;67758;39.572;2.652;2023-06-10T01:01:02;20.95;88.51
68450;SHT30;67758;39.572;2.652;2023-06-10T01:03:29;20.97;88.38
68450;SHT30;67758;39.572;2.652;2023-06-10T01:06:09;21.04;88.20
68450;SHT30;67758;39.572;2.652;2023-06-10T01:08:53;21.02;88.29
68450;SHT30;67758;39.572;2.652;2023-06-10T01:11:29;21.04;88.35
68450;SHT30;67758;39.572;2.652;2023-06-10T01:13:59;21.08;88.20
68450;SHT30;67758;39.572;2.652;2023-06-10T01:16:26;21.10;87.92
68450;SHT30;67758;39.572;2.652;2023-06-10T01:18:52;21.11;87.81
68450;SHT30;67758;39.572;2.652;2023-06-10T01:21:22;21.10;87.80
68450;SHT30;67758;39.572;2.652;2023-06-10T01:23:56;21.05;87.83
68450;SHT30;67758;39.572;2.652;2023-06-10T01:26:30;21.05;88.01
68450;SHT30;67758;39.572;2.652;2023-06-10T01:29:05;21.02;87.90
68450;SHT30;67758;39.572;2.652;2023-06-10T01:34:14;21.02;87.79
68450;SHT30;67758;39.572;2.652;2023-06-10T01:36:41;21.05;87.95
68450;SHT30;67758;39.572;2.652;2023-06-10T01:39:10;21.05;87.92
68450;SHT30;67758;39.572;2.652;2023-06-10T01:41:37;21.00;88.07
68450;SHT30;67758;39.572;2.652;2023-06-10T01:44:03;20.95;88.34
68450;SHT30;67758;39.572;2.652;2023-06-10T01:46:29;20.95;88.59
68450;SHT30;67758;39.572;2.652;2023-06-10T01:48:55;21.04;88.38
68450;SHT30;67758;39.572;2.652;2023-06-10T01:51:21;21.04;88.07
68450;SHT30;67758;39.572;2.652;2023-06-10T01:53:47;21.02;88.05
68450;SHT30;67758;39.572;2.652;2023-06-10T01:56:13;21.00;88.04
68450;SHT30;67758;39.572;2.652;2023-06-10T01:58:45;21.00;88.16
68450;SHT30;67758;39.572;2.652;2023-06-10T02:01:11;20.95;88.16
68450;SHT30;67758;39.572;2.652;2023-06-10T02:03:37;20.94;88.24
68450;SHT30;67758;39.572;2.652;2023-06-10T02:06:02;20.93;88.29
68450;SHT30;67758;39.572;2.652;2023-06-10T02:08:28;20.90;88.45
68450;SHT30;67758;39.572;2.652;2023-06-10T02:10:54;20.91;88.36
68450;SHT30;67758;39.572;2.652;2023-06-10T02:13:20;20.90;88.48
68450;SHT30;67758;39.572;2.652;2023-06-10T02:15:45;20.93;88.38
68450;SHT30;67758;39.572;2.652;2023-06-10T02:18:11;21.02;88.22
68450;SHT30;67758;39.572;2.652;2023-06-10T02:20:38;21.07;87.97
68450;SHT30;67758;39.572;2.652;2023-06-10T02:23:03;20.98;88.11
68450;SHT30;67758;39.572;2.652;2023-06-10T02:25:29;21.10;87.99
68450;SHT30;67758;39.572;2.652;2023-06-10T02:27:55;21.11;88.03
68450;SHT30;67758;39.572;2.652;2023-06-10T02:30:21;21.04;87.26
68450;SHT30;67758;39.572;2.652;2023-06-10T02:32:47;20.97;87.38
68450;SHT30;67758;39.572;2.652;2023-06-10T02:35:16;20.90;87.39
68450;SHT30;67758;39.572;2.652;2023-06-10T02:37:43;20.83;87.57
68450;SHT30;67758;39.572;2.652;2023-06-10T02:40:09;20.83;87.55
68450;SHT30;67758;39.572;2.652;2023-06-10T02:42:36;20.76;87.66
68450;SHT30;67758;39.572;2.652;2023-06-10T02:45:02;20.73;87.65
68450;SHT30;67758;39.572;2.652;2023-06-10T02:47:28;20.66;87.56
68450;SHT30;67758;39.572;2.652;2023-06-10T02:49:53;20.64;87.72
68450;SHT30;67758;39.572;2.652;2023-06-10T02:52:19;20.60;87.75
68450;SHT30;67758;39.572;2.652;2023-06-10T02:54:46;20.60;87.89
68450;SHT30;67758;39.572;2.652;2023-06-10T02:57:11;20.51;88.22
68450;SHT30;67758;39.572;2.652;2023-06-10T02:59:37;20.56;88.30
68450;SHT30;67758;39.572;2.652;2023-06-10T03:02:03;20.53;88.44
68450;SHT30;67758;39.572;2.652;2023-06-10T03:04:29;20.54;88.87
68450;SHT30;67758;39.572;2.652;2023-06-10T03:06:56;20.54;88.89
68450;SHT30;67758;39.572;2.652;2023-06-10T03:09:22;20.49;89.02
68450;SHT30;67758;39.572;2.652;2023-06-10T03:11:47;20.53;89.44
68450;SHT30;67758;39.572;2.652;2023-06-10T03:14:13;20.50;89.37
68450;SHT30;67758;39.572;2.652;2023-06-10T03:16:39;20.53;89.40
68450;SHT30;67758;39.572;2.652;2023-06-10T03:19:08;20.54;89.24
68450;SHT30;67758;39.572;2.652;2023-06-10T03:21:34;20.57;89.12
68450;SHT30;67758;39.572;2.652;2023-06-10T03:24:00;20.60;88.92
68450;SHT30;67758;39.572;2.652;2023-06-10T03:26:27;20.61;88.34
68450;SHT30;67758;39.572;2.652;2023-06-10T03:28:53;20.66;87.98
68450;SHT30;67758;39.572;2.652;2023-06-10T03:31:18;20.71;87.93
68450;SHT30;67758;39.572;2.652;2023-06-10T03:33:45;20.66;87.25
68450;SHT30;67758;39.572;2.652;2023-06-10T03:36:11;20.77;86.88
68450;SHT30;67758;39.572;2.652;2023-06-10T03:38:36;20.71;86.02
68450;SHT30;67758;39.572;2.652;2023-06-10T03:41:02;20.56;86.09
68450;SHT30;67758;39.572;2.652;2023-06-10T03:43:28;20.50;86.05
68450;SHT30;67758;39.572;2.652;2023-06-10T03:45:54;20.43;85.94
68450;SHT30;67758;39.572;2.652;2023-06-10T03:48:19;20.39;86.17
68450;SHT30;67758;39.572;2.652;2023-06-10T03:50:45;20.42;86.08
68450;SHT30;67758;39.572;2.652;2023-06-10T03:53:13;20.53;86.63
68450;SHT30;67758;39.572;2.652;2023-06-10T03:55:38;20.57;85.90
68450;SHT30;67758;39.572;2.652;2023-06-10T03:58:04;20.60;85.58
68450;SHT30;67758;39.572;2.652;2023-06-10T04:00:30;20.50;85.55
68450;SHT30;67758;39.572;2.652;2023-06-10T04:02:56;20.59;85.90
68450;SHT30;67758;39.572;2.652;2023-06-10T04:05:23;20.46;85.61
68450;SHT30;67758;39.572;2.652;2023-06-10T04:07:49;20.32;85.74
68450;SHT30;67758;39.572;2.652;2023-06-10T04:10:15;20.32;85.85
68450;SHT30;67758;39.572;2.652;2023-06-10T04:12:41;20.30;86.25
68450;SHT30;67758;39.572;2.652;2023-06-10T04:15:07;20.39;86.12
68450;SHT30;67758;39.572;2.652;2023-06-10T04:17:33;20.32;86.14
68450;SHT30;67758;39.572;2.652;2023-06-10T04:19:59;20.47;86.44
68450;SHT30;67758;39.572;2.652;2023-06-10T04:22:26;20.25;84.79
68450;SHT30;67758;39.572;2.652;2023-06-10T04:24:52;20.15;84.84
68450;SHT30;67758;39.572;2.652;2023-06-10T04:27:18;20.10;84.76
68450;SHT30;67758;39.572;2.652;2023-06-10T04:29:43;20.15;84.40
68450;SHT30;67758;39.572;2.652;2023-06-10T04:32:09;20.13;84.38
68450;SHT30;67758;39.572;2.652;2023-06-10T04:34:35;20.18;84.38
68450;SHT30;67758;39.572;2.652;2023-06-10T04:37:00;20.26;84.60
68450;SHT30;67758;39.572;2.652;2023-06-10T04:39:27;20.23;84.35
68450;SHT30;67758;39.572;2.652;2023-06-10T04:41:52;20.23;84.30
68450;SHT30;67758;39.572;2.652;2023-06-10T04:44:18;20.26;84.34
68450;SHT30;67758;39.572;2.652;2023-06-10T04:46:44;20.37;84.23
68450;SHT30;67758;39.572;2.652;2023-06-10T04:49:10;20.37;84.13
68450;SHT30;67758;39.572;2.652;2023-06-10T04:51:36;20.42;84.23
68450;SHT30;67758;39.572;2.652;2023-06-10T04:54:03;20.51;83.81
68450;SHT30;67758;39.572;2.652;2023-06-10T04:56:31;20.60;83.56
68450;SHT30;67758;39.572;2.652;2023-06-10T04:58:57;20.60;83.33
68450;SHT30;67758;39.572;2.652;2023-06-10T05:01:23;20.70;83.51
68450;SHT30;67758;39.572;2.652;2023-06-10T05:03:49;20.73;83.47
68450;SHT30;67758;39.572;2.652;2023-06-10T05:06:15;20.94;83.38
68450;SHT30;67758;39.572;2.652;2023-06-10T05:08:41;21.07;83.07
68450;SHT30;67758;39.572;2.652;2023-06-10T05:11:06;21.14;82.66
68450;SHT30;67758;39.572;2.652;2023-06-10T05:13:32;21.44;82.45
68450;SHT30;67758;39.572;2.652;2023-06-10T05:15:58;21.58;82.02
68450;SHT30;67758;39.572;2.652;2023-06-10T05:18:24;21.51;81.89
68450;SHT30;67758;39.572;2.652;2023-06-10T05:20:50;21.42;82.49
68450;SHT30;67758;39.572;2.652;2023-06-10T05:23:16;21.37;82.77
68450;SHT30;67758;39.572;2.652;2023-06-10T05:25:42;21.30;82.91
68450;SHT30;67758;39.572;2.652;2023-06-10T05:28:08;21.31;83.04
68450;SHT30;67758;39.572;2.652;2023-06-10T05:30:43;21.52;82.88
68450;SHT30;67758;39.572;2.652;2023-06-10T05:33:09;21.76;82.44
68450;SHT30;67758;39.572;2.652;2023-06-10T05:35:35;21.82;81.97
68450;SHT30;67758;39.572;2.652;2023-06-10T05:38:00;21.86;81.66
68450;SHT30;67758;39.572;2.652;2023-06-10T05:40:26;22.24;81.40
68450;SHT30;67758;39.572;2.652;2023-06-10T05:42:52;22.41;80.53
68450;SHT30;67758;39.572;2.652;2023-06-10T05:45:20;22.50;80.16
68450;SHT30;67758;39.572;2.652;2023-06-10T05:47:52;22.33;80.36
68450;SHT30;67758;39.572;2.652;2023-06-10T05:50:17;22.32;80.93
68450;SHT30;67758;39.572;2.652;2023-06-10T05:52:43;22.37;80.99
68450;SHT30;67758;39.572;2.652;2023-06-10T05:55:09;22.04;81.93
68450;SHT30;67758;39.572;2.652;2023-06-10T05:57:37;21.96;82.53
68450;SHT30;67758;39.572;2.652;2023-06-10T06:00:03;22.16;82.26
68450;SHT30;67758;39.572;2.652;2023-06-10T06:02:29;22.20;81.99
68450;SHT30;67758;39.572;2.652;2023-06-10T06:04:55;22.47;81.59
68450;SHT30;67758;39.572;2.652;2023-06-10T06:07:21;22.71;81.20
68450;SHT30;67758;39.572;2.652;2023-06-10T06:09:48;22.92;80.63
68450;SHT30;67758;39.572;2.652;2023-06-10T06:12:14;22.91;80.56
68450;SHT30;67758;39.572;2.652;2023-06-10T06:14:40;23.02;80.40
68450;SHT30;67758;39.572;2.652;2023-06-10T06:17:06;22.95;80.51
68450;SHT30;67758;39.572;2.652;2023-06-10T06:19:32;22.54;81.91
68450;SHT30;67758;39.572;2.652;2023-06-10T06:21:57;22.61;81.60
68450;SHT30;67758;39.572;2.652;2023-06-10T06:24:23;22.47;81.71
68450;SHT30;67758;39.572;2.652;2023-06-10T06:26:49;22.24;82.75
68450;SHT30;67758;39.572;2.652;2023-06-10T06:29:14;22.39;82.37
68450;SHT30;67758;39.572;2.652;2023-06-10T06:31:40;22.47;82.31
68450;SHT30;67758;39.572;2.652;2023-06-10T06:34:06;22.54;82.29
68450;SHT30;67758;39.572;2.652;2023-06-10T06:36:35;22.78;81.67
68450;SHT30;67758;39.572;2.652;2023-06-10T06:39:00;22.88;81.39
68450;SHT30;67758;39.572;2.652;2023-06-10T06:41:27;22.92;81.68
68450;SHT30;67758;39.572;2.652;2023-06-10T06:43:54;22.71;82.22
68450;SHT30;67758;39.572;2.652;2023-06-10T06:46:20;22.81;82.21
68450;SHT30;67758;39.572;2.652;2023-06-10T06:48:46;23.08;81.50
68450;SHT30;67758;39.572;2.652;2023-06-10T06:51:12;23.28;80.83
68450;SHT30;67758;39.572;2.652;2023-06-10T06:53:39;23.48;80.44
68450;SHT30;67758;39.572;2.652;2023-06-10T06:56:10;23.62;80.26
68450;SHT30;67758;39.572;2.652;2023-06-10T06:58:36;23.74;79.86
68450;SHT30;67758;39.572;2.652;2023-06-10T07:01:02;23.90;78.98
68450;SHT30;67758;39.572;2.652;2023-06-10T07:03:27;24.14;78.30
68450;SHT30;67758;39.572;2.652;2023-06-10T07:05:54;24.30;77.88
68450;SHT30;67758;39.572;2.652;2023-06-10T07:08:20;24.49;77.40
68450;SHT30;67758;39.572;2.652;2023-06-10T07:10:46;24.93;76.21
68450;SHT30;67758;39.572;2.652;2023-06-10T07:13:11;24.34;77.91
68450;SHT30;67758;39.572;2.652;2023-06-10T07:15:38;24.54;77.60
68450;SHT30;67758;39.572;2.652;2023-06-10T07:18:04;24.83;76.38
68450;SHT30;67758;39.572;2.652;2023-06-10T07:20:30;24.73;76.41
68450;SHT30;67758;39.572;2.652;2023-06-10T07:22:56;24.75;76.21
68450;SHT30;67758;39.572;2.652;2023-06-10T07:25:22;24.48;77.16
68450;SHT30;67758;39.572;2.652;2023-06-10T07:27:47;24.51;77.08
68450;SHT30;67758;39.572;2.652;2023-06-10T07:30:14;24.38;77.49
68450;SHT30;67758;39.572;2.652;2023-06-10T07:32:40;24.31;77.94
68450;SHT30;67758;39.572;2.652;2023-06-10T07:35:13;24.35;77.91
68450;SHT30;67758;39.572;2.652;2023-06-10T07:37:39;24.25;77.95
68450;SHT30;67758;39.572;2.652;2023-06-10T07:40:05;24.08;78.70
68450;SHT30;67758;39.572;2.652;2023-06-10T07:42:35;24.16;78.66
68450;SHT30;67758;39.572;2.652;2023-06-10T07:45:06;23.86;79.60
68450;SHT30;67758;39.572;2.652;2023-06-10T07:47:34;23.93;79.56
68450;SHT30;67758;39.572;2.652;2023-06-10T07:49:59;24.00;79.47
68450;SHT30;67758;39.572;2.652;2023-06-10T07:52:25;24.06;79.25
68450;SHT30;67758;39.572;2.652;2023-06-10T07:54:51;24.25;78.58
68450;SHT30;67758;39.572;2.652;2023-06-10T07:57:18;24.27;78.69
68450;SHT30;67758;39.572;2.652;2023-06-10T07:59:44;24.27;78.80
68450;SHT30;67758;39.572;2.652;2023-06-10T08:02:10;24.17;79.16
68450;SHT30;67758;39.572;2.652;2023-06-10T08:04:35;24.11;79.28
68450;SHT30;67758;39.572;2.652;2023-06-10T08:07:01;24.24;78.92
68450;SHT30;67758;39.572;2.652;2023-06-10T08:09:28;23.94;79.69
68450;SHT30;67758;39.572;2.652;2023-06-10T08:11:53;23.89;80.23
68450;SHT30;67758;39.572;2.652;2023-06-10T08:14:19;23.89;80.20
68450;SHT30;67758;39.572;2.652;2023-06-10T08:16:45;23.86;80.37
68450;SHT30;67758;39.572;2.652;2023-06-10T08:19:11;23.96;80.26
68450;SHT30;67758;39.572;2.652;2023-06-10T08:21:37;24.06;79.70
68450;SHT30;67758;39.572;2.652;2023-06-10T08:24:06;23.93;79.97
68450;SHT30;67758;39.572;2.652;2023-06-10T08:26:33;23.98;80.11
68450;SHT30;67758;39.572;2.652;2023-06-10T08:28:58;24.08;79.81
68450;SHT30;67758;39.572;2.652;2023-06-10T08:31:24;24.03;79.85
68450;SHT30;67758;39.572;2.652;2023-06-10T08:34:11;24.13;79.64
68450;SHT30;67758;39.572;2.652;2023-06-10T08:36:37;23.98;79.93
68450;SHT30;67758;39.572;2.652;2023-06-10T08:39:03;24.08;79.60
68450;SHT30;67758;39.572;2.652;2023-06-10T08:41:30;24.24;79.26
68450;SHT30;67758;39.572;2.652;2023-06-10T08:44:28;24.42;78.55
68450;SHT30;67758;39.572;2.652;2023-06-10T08:46:56;24.37;78.72
68450;SHT30;67758;39.572;2.652;2023-06-10T08:49:30;24.51;78.23
68450;SHT30;67758;39.572;2.652;2023-06-10T08:51:59;24.69;77.59
68450;SHT30;67758;39.572;2.652;2023-06-10T08:54:31;24.85;77.20
68450;SHT30;67758;39.572;2.652;2023-06-10T08:56:59;24.91;77.07
68450;SHT30;67758;39.572;2.652;2023-06-10T08:59:48;24.99;76.73
68450;SHT30;67758;39.572;2.652;2023-06-10T09:02:22;24.83;76.98
68450;SHT30;67758;39.572;2.652;2023-06-10T09:04:50;24.85;77.01
68450;SHT30;67758;39.572;2.652;2023-06-10T09:07:17;24.86;77.30
68450;SHT30;67758;39.572;2.652;2023-06-10T09:09:45;24.95;76.90
68450;SHT30;67758;39.572;2.652;2023-06-10T09:12:14;24.88;77.27
68450;SHT30;67758;39.572;2.652;2023-06-10T09:14:44;25.13;77.04
68450;SHT30;67758;39.572;2.652;2023-06-10T09:17:11;25.16;76.94
68450;SHT30;67758;39.572;2.652;2023-06-10T09:19:38;25.18;76.84
68450;SHT30;67758;39.572;2.652;2023-06-10T09:22:04;25.10;77.02
68450;SHT30;67758;39.572;2.652;2023-06-10T09:24:30;25.13;76.89
68450;SHT30;67758;39.572;2.652;2023-06-10T09:27:07;25.20;76.78
68450;SHT30;67758;39.572;2.652;2023-06-10T09:29:54;25.08;77.12
68450;SHT30;67758;39.572;2.652;2023-06-10T09:32:23;25.15;77.00
68450;SHT30;67758;39.572;2.652;2023-06-10T09:34:51;25.23;77.04
68450;SHT30;67758;39.572;2.652;2023-06-10T09:37:20;25.27;76.87
68450;SHT30;67758;39.572;2.652;2023-06-10T09:40:08;25.53;75.85
68450;SHT30;67758;39.572;2.652;2023-06-10T09:42:39;25.26;76.54
68450;SHT30;67758;39.572;2.652;2023-06-10T09:45:09;25.12;77.15
68450;SHT30;67758;39.572;2.652;2023-06-10T09:47:38;25.09;77.34
68450;SHT30;67758;39.572;2.652;2023-06-10T09:50:04;25.22;77.06
68450;SHT30;67758;39.572;2.652;2023-06-10T09:52:31;25.50;76.73
68450;SHT30;67758;39.572;2.652;2023-06-10T09:55:07;25.64;76.19
68450;SHT30;67758;39.572;2.652;2023-06-10T09:57:34;25.80;75.80
68450;SHT30;67758;39.572;2.652;2023-06-10T10:00:08;26.34;74.32
68450;SHT30;67758;39.572;2.652;2023-06-10T10:03:00;26.82;72.98
68450;SHT30;67758;39.572;2.652;2023-06-10T10:05:27;26.68;73.19
68450;SHT30;67758;39.572;2.652;2023-06-10T10:07:53;26.76;73.42
68450;SHT30;67758;39.572;2.652;2023-06-10T10:10:20;26.96;72.75
68450;SHT30;67758;39.572;2.652;2023-06-10T10:12:58;26.65;72.85
68450;SHT30;67758;39.572;2.652;2023-06-10T10:15:29;26.41;73.29
68450;SHT30;67758;39.572;2.652;2023-06-10T10:18:09;26.15;74.16
68450;SHT30;67758;39.572;2.652;2023-06-10T10:20:47;25.91;75.34
68450;SHT30;67758;39.572;2.652;2023-06-10T10:23:52;26.11;74.58
68450;SHT30;67758;39.572;2.652;2023-06-10T10:26:29;26.11;74.77
68450;SHT30;67758;39.572;2.652;2023-06-10T10:31:48;26.44;73.85
68450;SHT30;67758;39.572;2.652;2023-06-10T10:34:35;27.89;69.78
68450;SHT30;67758;39.572;2.652;2023-06-10T10:37:08;28.49;67.91
68450;SHT30;67758;39.572;2.652;2023-06-10T10:39:39;28.56;67.32
68450;SHT30;67758;39.572;2.652;2023-06-10T10:42:14;28.74;67.37
68450;SHT30;67758;39.572;2.652;2023-06-10T10:44:43;28.38;67.80
68450;SHT30;67758;39.572;2.652;2023-06-10T10:47:10;28.23;68.86
68450;SHT30;67758;39.572;2.652;2023-06-10T10:49:56;27.85;69.79
68450;SHT30;67758;39.572;2.652;2023-06-10T10:52:27;27.80;70.11
68450;SHT30;67758;39.572;2.652;2023-06-10T10:55:16;27.80;69.84
68450;SHT30;67758;39.572;2.652;2023-06-10T10:57:42;27.71;70.59
68450;SHT30;67758;39.572;2.652;2023-06-10T11:00:09;28.01;69.99
68450;SHT30;67758;39.572;2.652;2023-06-10T11:02:45;28.26;68.91
68450;SHT30;67758;39.572;2.652;2023-06-10T11:05:14;28.47;68.16
68450;SHT30;67758;39.572;2.652;2023-06-10T11:07:54;28.56;68.26
68450;SHT30;67758;39.572;2.652;2023-06-10T11:11:17;28.81;67.49
68450;SHT30;67758;39.572;2.652;2023-06-10T11:13:29;29.18;65.96
68450;SHT30;67758;39.572;2.652;2023-06-10T11:15:58;28.91;66.41
68450;SHT30;67758;39.572;2.652;2023-06-10T11:20:55;30.81;61.80
68450;SHT30;67758;39.572;2.652;2023-06-10T11:23:40;31.66;58.88
68450;SHT30;67758;39.572;2.652;2023-06-10T11:29:05;32.34;56.82
68450;SHT30;67758;39.572;2.652;2023-06-10T11:31:58;33.33;54.84
68450;SHT30;67758;39.572;2.652;2023-06-10T11:34:26;33.23;54.78
68450;SHT30;67758;39.572;2.652;2023-06-10T11:36:56;32.41;56.69
68450;SHT30;67758;39.572;2.652;2023-06-10T11:39:27;32.44;56.37
68450;SHT30;67758;39.572;2.652;2023-06-10T11:42:22;32.50;56.40
68450;SHT30;67758;39.572;2.652;2023-06-10T11:44:53;31.67;58.65
68450;SHT30;67758;39.572;2.652;2023-06-10T11:47:56;32.13;57.31
68450;SHT30;67758;39.572;2.652;2023-06-10T11:50:53;32.19;57.14
68450;SHT30;67758;39.572;2.652;2023-06-10T11:53:23;32.68;55.83
68450;SHT30;67758;39.572;2.652;2023-06-10T11:55:51;32.89;55.22
68450;SHT30;67758;39.572;2.652;2023-06-10T11:58:21;32.84;55.71
68450;SHT30;67758;39.572;2.652;2023-06-10T12:00:54;32.65;56.10
68450;SHT30;67758;39.572;2.652;2023-06-10T12:03:25;32.64;55.70
68450;SHT30;67758;39.572;2.652;2023-06-10T12:06:05;32.09;57.85
68450;SHT30;67758;39.572;2.652;2023-06-10T12:08:33;32.10;57.67
68450;SHT30;67758;39.572;2.652;2023-06-10T12:11:10;32.27;57.48
68450;SHT30;67758;39.572;2.652;2023-06-10T12:13:47;32.23;57.63
68450;SHT30;67758;39.572;2.652;2023-06-10T12:16:17;32.31;57.52
68450;SHT30;67758;39.572;2.652;2023-06-10T12:18:49;32.57;56.56
68450;SHT30;67758;39.572;2.652;2023-06-10T12:21:23;32.13;57.31
68450;SHT30;67758;39.572;2.652;2023-06-10T12:24:10;31.93;57.65
68450;SHT30;67758;39.572;2.652;2023-06-10T12:27:01;31.69;58.60
68450;SHT30;67758;39.572;2.652;2023-06-10T12:29:35;31.10;60.25
68450;SHT30;67758;39.572;2.652;2023-06-10T12:32:06;30.61;60.85
68450;SHT30;67758;39.572;2.652;2023-06-10T12:34:37;30.53;61.82
68450;SHT30;67758;39.572;2.652;2023-06-10T12:37:10;30.80;59.72
68450;SHT30;67758;39.572;2.652;2023-06-10T12:40:04;31.22;58.73
68450;SHT30;67758;39.572;2.652;2023-06-10T12:43:11;30.68;60.93
68450;SHT30;67758;39.572;2.652;2023-06-10T12:46:10;30.48;61.72
68450;SHT30;67758;39.572;2.652;2023-06-10T12:48:49;30.77;60.86
68450;SHT30;67758;39.572;2.652;2023-06-10T12:51:21;31.10;60.58
68450;SHT30;67758;39.572;2.652;2023-06-10T12:53:48;31.16;60.04
68450;SHT30;67758;39.572;2.652;2023-06-10T12:56:16;31.46;59.22
68450;SHT30;67758;39.572;2.652;2023-06-10T12:58:42;31.32;59.89
68450;SHT30;67758;39.572;2.652;2023-06-10T13:01:09;30.95;60.40
68450;SHT30;67758;39.572;2.652;2023-06-10T13:03:34;31.15;60.37
68450;SHT30;67758;39.572;2.652;2023-06-10T13:06:02;31.19;60.45
68450;SHT30;67758;39.572;2.652;2023-06-10T13:08:31;31.24;60.45
68450;SHT30;67758;39.572;2.652;2023-06-10T13:10:58;31.18;60.57
68450;SHT30;67758;39.572;2.652;2023-06-10T13:13:23;31.61;59.82
68450;SHT30;67758;39.572;2.652;2023-06-10T13:15:49;31.43;60.32
68450;SHT30;67758;39.572;2.652;2023-06-10T13:18:20;31.49;60.25
68450;SHT30;67758;39.572;2.652;2023-06-10T13:20:46;31.55;60.16
68450;SHT30;67758;39.572;2.652;2023-06-10T13:23:11;31.83;59.57
68450;SHT30;67758;39.572;2.652;2023-06-10T13:25:37;31.97;59.22
68450;SHT30;67758;39.572;2.652;2023-06-10T13:28:06;31.10;61.40
68450;SHT30;67758;39.572;2.652;2023-06-10T13:30:37;30.16;64.11
68450;SHT30;67758;39.572;2.652;2023-06-10T13:33:02;29.71;65.60
68450;SHT30;67758;39.572;2.652;2023-06-10T13:35:28;29.44;66.63
68450;SHT30;67758;39.572;2.652;2023-06-10T13:37:54;29.35;67.36
68450;SHT30;67758;39.572;2.652;2023-06-10T13:40:19;29.47;66.76
68450;SHT30;67758;39.572;2.652;2023-06-10T13:42:45;29.25;67.49
68450;SHT30;67758;39.572;2.652;2023-06-10T13:45:16;29.55;66.55
68450;SHT30;67758;39.572;2.652;2023-06-10T13:47:43;29.59;66.44
68450;SHT30;67758;39.572;2.652;2023-06-10T13:50:09;29.28;67.88
68450;SHT30;67758;39.572;2.652;2023-06-10T13:52:35;29.76;66.87
68450;SHT30;67758;39.572;2.652;2023-06-10T13:55:00;30.17;64.64
68450;SHT30;67758;39.572;2.652;2023-06-10T13:57:26;29.82;65.93
68450;SHT30;67758;39.572;2.652;2023-06-10T13:59:55;29.86;66.33
68450;SHT30;67758;39.572;2.652;2023-06-10T14:02:30;29.92;66.67
68450;SHT30;67758;39.572;2.652;2023-06-10T14:05:02;30.37;65.26
68450;SHT30;67758;39.572;2.652;2023-06-10T14:07:28;30.03;65.91
68450;SHT30;67758;39.572;2.652;2023-06-10T14:09:53;30.22;65.31
68450;SHT30;67758;39.572;2.652;2023-06-10T14:12:20;30.26;65.92
68450;SHT30;67758;39.572;2.652;2023-06-10T14:14:46;30.80;64.94
68450;SHT30;67758;39.572;2.652;2023-06-10T14:17:13;31.38;62.99
68450;SHT30;67758;39.572;2.652;2023-06-10T14:19:47;31.25;63.04
68450;SHT30;67758;39.572;2.652;2023-06-10T14:22:16;31.76;62.46
68450;SHT30;67758;39.572;2.652;2023-06-10T14:24:42;31.79;61.17
68450;SHT30;67758;39.572;2.652;2023-06-10T14:27:12;31.45;61.24
68450;SHT30;67758;39.572;2.652;2023-06-10T14:29:38;30.80;63.35
68450;SHT30;67758;39.572;2.652;2023-06-10T14:32:04;30.94;63.19
68450;SHT30;67758;39.572;2.652;2023-06-10T14:34:29;31.18;63.34
68450;SHT30;67758;39.572;2.652;2023-06-10T14:36:59;31.58;62.32
68450;SHT30;67758;39.572;2.652;2023-06-10T14:39:26;31.01;63.47
68450;SHT30;67758;39.572;2.652;2023-06-10T14:41:53;31.12;63.54
68450;SHT30;67758;39.572;2.652;2023-06-10T14:44:27;31.85;61.83
68450;SHT30;67758;39.572;2.652;2023-06-10T14:46:55;31.93;61.15
68450;SHT30;67758;39.572;2.652;2023-06-10T14:49:21;31.97;60.42
68450;SHT30;67758;39.572;2.652;2023-06-10T14:51:46;32.24;60.57
68450;SHT30;67758;39.572;2.652;2023-06-10T14:54:15;32.23;60.42
68450;SHT30;67758;39.572;2.652;2023-06-10T14:56:41;32.34;60.52
68450;SHT30;67758;39.572;2.652;2023-06-10T14:59:07;31.86;61.70
68450;SHT30;67758;39.572;2.652;2023-06-10T15:01:34;31.18;63.82
68450;SHT30;67758;39.572;2.652;2023-06-10T15:04:00;30.88;64.55
68450;SHT30;67758;39.572;2.652;2023-06-10T15:06:26;31.08;64.31
68450;SHT30;67758;39.572;2.652;2023-06-10T15:08:52;31.56;62.79
68450;SHT30;67758;39.572;2.652;2023-06-10T15:11:17;31.98;61.74
68450;SHT30;67758;39.572;2.652;2023-06-10T15:13:43;31.47;62.01
68450;SHT30;67758;39.572;2.652;2023-06-10T15:16:10;31.31;63.09
68450;SHT30;67758;39.572;2.652;2023-06-10T15:18:36;31.45;62.28
68450;SHT30;67758;39.572;2.652;2023-06-10T15:21:03;31.31;62.69
68450;SHT30;67758;39.572;2.652;2023-06-10T15:23:29;31.46;62.88
68450;SHT30;67758;39.572;2.652;2023-06-10T15:25:55;31.35;63.58
68450;SHT30;67758;39.572;2.652;2023-06-10T15:28:21;31.18;63.78
68450;SHT30;67758;39.572;2.652;2023-06-10T15:30:46;30.30;66.48
68450;SHT30;67758;39.572;2.652;2023-06-10T15:33:12;30.44;66.04
68450;SHT30;67758;39.572;2.652;2023-06-10T15:35:38;30.87;64.33
68450;SHT30;67758;39.572;2.652;2023-06-10T15:38:08;31.05;64.22
68450;SHT30;67758;39.572;2.652;2023-06-10T15:40:33;31.35;63.70
68450;SHT30;67758;39.572;2.652;2023-06-10T15:43:01;31.50;63.25
68450;SHT30;67758;39.572;2.652;2023-06-10T15:45:27;31.29;64.07
68450;SHT30;67758;39.572;2.652;2023-06-10T15:47:53;30.80;65.61
68450;SHT30;67758;39.572;2.652;2023-06-10T15:50:19;30.83;65.89
68450;SHT30;67758;39.572;2.652;2023-06-10T15:52:46;30.73;65.77